Airfield :







YOU CAN JOIN US ON...

 
LOGIN :

Register | Disclaimer

   EN    FR    IT 

 









Legend :    VFR   Marginal VFR   IFR   Intensive IFR   Very Intensive IFR
Visi :
Ceiling :
>= 8 km
>= 3000ft
5 to 8 km
1000 to 3000 ft
1500m to 5 km
500 to 1000 ft
800 to 1500m
200 to 500 ft
< 800m
< 200 ft
Symbols :   Thunderstorms  Fog  Heavy snow  Heavy precipitations  Wind > 20 kt







- Airport Elevation : 72 ft
- IATA code : YDF


CYDF - Deer Lake

CURRENT METAR :
  • 221300Z 25010G15KT 12SM BKN014 OVC036 09/07 A3006 RMK ST5SC3 SLP181

EXPIRED METARs :
  • 221200Z 25008KT 10SM SCT011 BKN027 OVC091 08/07 A3005 RMK ST4SC3AC1 SLP178
  • 221100Z 25010KT 10SM BKN013 BKN055 BKN085 09/08 A3004 RMK ST5SC1AC1 SLP176

TAF TAF CYDF
Valid from the 22 at 14:00 until the 23 at 02:00 UTC


221343Z 2214/2302 25010KT WS005/25025KT P6SM BKN015 OVC030
TEMPO 2214/2215 3SM -RA BR BKN007 OVC015
FM221500 25010G20KT P6SM BKN008
TEMPO 2215/2218 SCT008
FM221800 25008G18KT P6SM FEW012 BKN220
TEMPO 2218/2219 BKN012 OVC220
BECMG 2221/2222 25005KT RMK NXT FCST BY 222000Z
CZQX FIR / North America



MET'MAP, your aeronautical weather chart ! - Copyright ORBIFLY December 2007 - Disclaimer

ORBIFLY MET'MAP TEAM :

Programming & Development : Alexandra Zaïnal
Concept & Development : Baudouin d'Aumeries
Co-Development & Prog : Marc-Olivier Méhu
Technical & hardware support : Manuel Goepfert

Contact : metmap@orbifly.com




SOURCES & CREDITS :

   NOAA